createdAt,value
2019-05-03T00:02:12.188Z,70.70
2019-05-03T00:04:42.249Z,71.00
2019-05-03T00:07:11.809Z,71.00
2019-05-03T00:09:42.508Z,72.10
2019-05-03T00:12:12.521Z,71.30
2019-05-03T00:14:42.715Z,71.70
2019-05-03T00:17:11.721Z,72.10
2019-05-03T00:19:42.089Z,71.50
2019-05-03T00:22:12.354Z,71.40
2019-05-03T00:24:42.667Z,71.50
2019-05-03T00:27:12.595Z,71.70
2019-05-03T00:29:41.751Z,72.70
2019-05-03T00:32:12.335Z,72.20
2019-05-03T00:34:52.353Z,72.70
2019-05-03T00:37:23.004Z,72.70
2019-05-03T00:40:04.491Z,72.20
2019-05-03T00:42:33.117Z,72.40
2019-05-03T00:45:02.274Z,72.40
2019-05-03T00:47:32.690Z,73.10
2019-05-03T00:50:02.806Z,73.00
2019-05-03T00:52:31.889Z,73.40
2019-05-03T00:55:02.329Z,73.00
2019-05-03T00:57:32.244Z,72.90
2019-05-03T01:00:04.229Z,73.10
2019-05-03T01:02:32.878Z,73.10
2019-05-03T01:05:02.816Z,73.40
2019-05-03T01:07:32.017Z,73.80
2019-05-03T01:10:02.662Z,73.70
2019-05-03T01:12:32.415Z,73.70
2019-05-03T01:15:02.784Z,73.50
2019-05-03T01:17:32.568Z,73.10
2019-05-03T01:20:02.769Z,72.80
2019-05-03T01:22:32.238Z,72.50
2019-05-03T01:25:02.858Z,72.20
2019-05-03T01:27:34.151Z,71.80
2019-05-03T01:30:03.098Z,71.40
2019-05-03T01:32:32.946Z,71.20
2019-05-03T01:35:03.140Z,71.00
2019-05-03T01:37:32.136Z,70.90
2019-05-03T01:40:02.356Z,70.80
2019-05-03T01:42:32.174Z,70.70
2019-05-03T01:45:01.774Z,70.60
2019-05-03T01:47:32.568Z,70.60
2019-05-03T01:50:02.945Z,70.50
2019-05-03T01:52:41.961Z,70.50
2019-05-03T01:55:13.915Z,70.30
2019-05-03T01:57:41.911Z,70.20
2019-05-03T02:00:14.175Z,70.10
2019-05-03T02:02:47.240Z,70.00
2019-05-03T02:05:22.471Z,69.80
2019-05-03T02:07:52.885Z,69.60
2019-05-03T02:10:22.639Z,69.50
2019-05-03T02:12:52.259Z,69.30
2019-05-03T02:15:22.132Z,69.10
2019-05-03T02:17:52.059Z,68.90
2019-05-03T02:20:21.915Z,68.70
2019-05-03T02:22:52.166Z,68.60
2019-05-03T02:25:21.753Z,68.50
2019-05-03T02:27:52.587Z,68.10
2019-05-03T02:30:24.765Z,67.90
2019-05-03T02:32:53.356Z,67.90
2019-05-03T02:35:23.039Z,67.70
2019-05-03T02:37:54.408Z,67.80
2019-05-03T02:40:24.724Z,67.90
2019-05-03T02:43:11.652Z,68.20
2019-05-03T02:45:56.939Z,68.50
2019-05-03T02:48:41.930Z,68.70
2019-05-03T02:51:10.536Z,68.70
2019-05-03T02:53:39.173Z,69.10
2019-05-03T02:56:20.973Z,69.30
2019-05-03T02:58:38.172Z,69.60
2019-05-03T03:01:06.875Z,69.60
2019-05-03T03:03:36.570Z,69.60
2019-05-03T03:06:06.935Z,69.50
2019-05-03T03:08:37.708Z,69.30
2019-05-03T03:11:08.114Z,69.30
2019-05-03T03:13:38.033Z,69.10
2019-05-03T03:16:11.117Z,68.90
2019-05-03T03:18:40.919Z,68.70
2019-05-03T03:21:19.280Z,68.70
2019-05-03T03:24:16.886Z,68.70
2019-05-03T03:26:47.310Z,68.50
2019-05-03T03:29:19.145Z,68.80
2019-05-03T03:32:09.955Z,68.70
2019-05-03T03:34:56.855Z,68.80
2019-05-03T03:37:21.003Z,68.70
2019-05-03T03:39:50.422Z,68.80
2019-05-03T03:42:19.730Z,68.70
2019-05-03T03:44:48.890Z,68.60
2019-05-03T03:47:17.533Z,68.50
2019-05-03T03:49:47.395Z,68.80
2019-05-03T03:52:17.019Z,68.80
2019-05-03T03:54:47.976Z,68.90
2019-05-03T03:57:17.032Z,68.90
2019-05-03T03:59:45.806Z,69.10
2019-05-03T04:02:16.164Z,69.20
2019-05-03T04:04:45.778Z,69.30
2019-05-03T04:07:17.060Z,69.50
2019-05-03T04:09:47.629Z,69.60
2019-05-03T04:12:16.862Z,69.80
2019-05-03T04:14:50.288Z,69.90
2019-05-03T04:17:26.083Z,70.10
2019-05-03T04:19:56.247Z,70.30
2019-05-03T04:22:25.597Z,70.70
2019-05-03T04:24:55.375Z,70.90
2019-05-03T04:27:27.259Z,71.30
2019-05-03T04:29:55.826Z,71.40
2019-05-03T04:32:28.106Z,71.90
2019-05-03T04:34:56.054Z,72.20
2019-05-03T04:37:26.710Z,72.40
2019-05-03T04:39:56.070Z,72.70
2019-05-03T04:42:25.477Z,73.20
2019-05-03T04:44:56.254Z,73.70
2019-05-03T04:47:26.379Z,74.00
2019-05-03T04:49:55.505Z,74.20
2019-05-03T04:52:25.837Z,74.20
2019-05-03T04:54:56.680Z,74.70
2019-05-03T04:57:39.294Z,75.00
2019-05-03T04:59:56.273Z,75.20
2019-05-03T05:02:26.229Z,75.10
2019-05-03T05:04:55.623Z,75.20
2019-05-03T05:07:26.382Z,75.20
2019-05-03T05:09:56.229Z,75.10
2019-05-03T05:12:27.285Z,75.00
2019-05-03T05:14:57.935Z,75.10
2019-05-03T05:17:28.178Z,75.20
2019-05-03T05:20:10.235Z,75.20
2019-05-03T05:22:39.080Z,75.10
2019-05-03T05:25:25.149Z,74.90
2019-05-03T05:27:58.164Z,75.10
2019-05-03T05:30:26.843Z,75.20
2019-05-03T05:32:55.419Z,75.10
2019-05-03T05:35:24.849Z,75.30
2019-05-03T05:37:55.477Z,75.50
2019-05-03T05:40:24.596Z,75.80
2019-05-03T05:42:55.676Z,75.60
2019-05-03T05:45:25.225Z,75.40
2019-05-03T05:47:58.149Z,75.50
2019-05-03T05:50:37.323Z,75.90
2019-05-03T05:53:06.111Z,75.60
2019-05-03T05:55:52.389Z,75.50
2019-05-03T05:58:25.444Z,75.10
2019-05-03T06:00:55.197Z,75.10
2019-05-03T06:03:25.274Z,75.00
2019-05-03T06:05:55.357Z,75.00
2019-05-03T06:08:25.571Z,75.20
2019-05-03T06:11:10.563Z,75.40
2019-05-03T06:13:46.355Z,75.20
2019-05-03T06:16:28.764Z,74.50
2019-05-03T06:19:01.775Z,74.40
2019-05-03T06:21:35.307Z,73.70
2019-05-03T06:24:05.734Z,72.60
2019-05-03T06:26:36.843Z,71.70
2019-05-03T06:29:06.339Z,70.00
2019-05-03T06:31:42.397Z,69.00
2019-05-03T06:34:11.004Z,68.50
2019-05-03T06:36:40.719Z,68.50
2019-05-03T06:39:09.673Z,68.60
2019-05-03T06:41:38.309Z,68.50
2019-05-03T06:44:06.876Z,68.60
2019-05-03T06:46:45.967Z,68.50
2019-05-03T06:49:15.445Z,68.40
2019-05-03T06:51:45.638Z,68.10
2019-05-03T06:54:15.782Z,68.00
2019-05-03T06:56:45.234Z,67.70
2019-05-03T06:59:27.565Z,67.20
2019-05-03T07:02:00.785Z,67.20
2019-05-03T07:04:34.716Z,67.20
2019-05-03T07:07:15.517Z,67.20
2019-05-03T07:09:45.858Z,67.10
2019-05-03T07:12:14.943Z,67.20
2019-05-03T07:14:45.132Z,67.40
2019-05-03T07:17:14.532Z,67.30
2019-05-03T07:19:43.278Z,66.80
2019-05-03T07:22:11.908Z,66.50
2019-05-03T07:24:41.064Z,66.30
2019-05-03T07:27:10.508Z,66.10
2019-05-03T07:29:39.070Z,66.10
2019-05-03T07:32:07.716Z,66.00
2019-05-03T07:34:36.470Z,65.90
2019-05-03T07:37:05.878Z,65.90
2019-05-03T07:39:35.030Z,66.00
2019-05-03T07:42:05.402Z,65.80
2019-05-03T07:44:34.757Z,65.50
2019-05-03T07:47:04.750Z,65.60
2019-05-03T07:49:35.472Z,65.80
2019-05-03T07:52:05.896Z,65.60
2019-05-03T07:54:34.990Z,65.20
2019-05-03T07:57:05.322Z,65.00
2019-05-03T07:59:35.545Z,65.00
2019-05-03T08:02:05.586Z,64.90
2019-05-03T08:04:35.809Z,64.90
2019-05-03T08:07:04.671Z,64.70
2019-05-03T08:09:35.082Z,63.80
2019-05-03T08:12:05.077Z,62.90
2019-05-03T08:14:35.498Z,63.50
2019-05-03T08:17:05.231Z,63.60
2019-05-03T08:19:35.923Z,63.10
2019-05-03T08:22:05.137Z,63.20
2019-05-03T08:24:34.630Z,63.40
2019-05-03T08:27:05.086Z,62.80
2019-05-03T08:29:35.163Z,62.70
2019-05-03T08:32:05.684Z,62.60
2019-05-03T08:34:38.592Z,62.20
2019-05-03T08:37:10.762Z,62.50
2019-05-03T08:39:39.332Z,62.30
2019-05-03T08:42:15.534Z,62.00
2019-05-03T08:44:45.328Z,61.80
2019-05-03T08:47:15.473Z,61.10
2019-05-03T08:49:45.062Z,61.20
2019-05-03T08:52:15.637Z,61.70
2019-05-03T08:54:44.900Z,61.50
2019-05-03T08:57:14.939Z,59.90
2019-05-03T08:59:44.747Z,60.90
2019-05-03T09:02:14.921Z,59.90
2019-05-03T09:04:45.984Z,57.00
2019-05-03T09:07:15.851Z,56.30
2019-05-03T09:09:48.048Z,57.10
2019-05-03T09:12:22.419Z,56.90
2019-05-03T09:14:50.997Z,54.40
2019-05-03T09:17:19.579Z,54.20
2019-05-03T09:19:48.250Z,54.40
2019-05-03T09:22:16.896Z,55.20
2019-05-03T09:24:45.665Z,56.10
2019-05-03T09:27:15.468Z,52.90
2019-05-03T09:29:46.174Z,49.10
2019-05-03T09:32:14.779Z,48.10
2019-05-03T09:34:44.518Z,50.40
2019-05-03T09:37:15.380Z,48.00
2019-05-03T09:39:44.548Z,46.30
2019-05-03T09:42:14.957Z,46.50
2019-05-03T09:44:45.083Z,45.10
2019-05-03T09:47:14.650Z,45.20
2019-05-03T09:49:45.202Z,45.90
2019-05-03T09:52:16.111Z,44.80
2019-05-03T09:54:51.229Z,44.70
2019-05-03T09:57:19.796Z,45.90
2019-05-03T09:59:58.949Z,45.30
2019-05-03T10:02:18.569Z,46.40
2019-05-03T10:04:47.133Z,47.50
2019-05-03T10:07:15.887Z,45.80
2019-05-03T10:09:45.043Z,44.90
2019-05-03T10:12:16.182Z,45.00
2019-05-03T10:14:47.261Z,45.20
2019-05-03T10:17:22.484Z,49.90
2019-05-03T10:19:55.548Z,46.40
2019-05-03T10:22:32.529Z,48.50
2019-05-03T10:25:12.945Z,48.80
2019-05-03T10:27:47.373Z,47.40
2019-05-03T10:30:21.400Z,46.10
2019-05-03T10:32:57.558Z,44.90
2019-05-03T10:35:26.214Z,45.40
2019-05-03T10:37:55.801Z,45.20
2019-05-03T10:40:27.544Z,44.50
2019-05-03T10:42:56.477Z,43.10
2019-05-03T10:45:27.948Z,43.30
2019-05-03T10:47:55.406Z,43.40
2019-05-03T10:50:25.276Z,43.10
2019-05-03T10:53:05.197Z,42.20
2019-05-03T10:55:35.743Z,41.30
2019-05-03T10:58:19.073Z,43.00
2019-05-03T11:00:56.758Z,42.50
2019-05-03T11:03:24.635Z,43.20
2019-05-03T11:05:54.832Z,42.00
2019-05-03T11:08:23.536Z,40.40
2019-05-03T11:10:52.110Z,39.20
2019-05-03T11:13:20.766Z,38.60
2019-05-03T11:15:49.494Z,38.50
2019-05-03T11:18:18.126Z,38.10
2019-05-03T11:20:46.705Z,38.60
2019-05-03T11:23:15.302Z,39.10
2019-05-03T11:25:45.200Z,39.00
2019-05-03T11:28:21.443Z,38.30
2019-05-03T11:30:55.674Z,38.00
2019-05-03T11:33:25.724Z,37.50
2019-05-03T11:35:55.966Z,38.30
2019-05-03T11:38:28.877Z,38.90
2019-05-03T11:40:57.476Z,38.60
2019-05-03T11:43:26.045Z,38.40
2019-05-03T11:45:55.461Z,36.80
2019-05-03T11:48:25.245Z,38.00
2019-05-03T11:50:54.647Z,38.30
2019-05-03T11:53:25.035Z,38.30
2019-05-03T11:55:55.237Z,37.90
2019-05-03T11:58:27.010Z,38.20
2019-05-03T12:01:10.763Z,38.50
2019-05-03T12:03:36.632Z,38.30
2019-05-03T12:06:05.315Z,38.40
2019-05-03T12:08:34.611Z,38.10
2019-05-03T12:11:05.318Z,37.40
2019-05-03T12:13:33.522Z,37.50
2019-05-03T12:16:02.926Z,37.00
2019-05-03T12:18:46.079Z,36.00
2019-05-03T12:21:04.030Z,34.60
2019-05-03T12:23:33.952Z,35.90
2019-05-03T12:26:06.540Z,36.50
2019-05-03T12:28:35.298Z,36.80
2019-05-03T12:31:04.926Z,36.70
2019-05-03T12:33:35.471Z,36.50
2019-05-03T12:36:05.389Z,36.70
2019-05-03T12:38:34.972Z,36.70
2019-05-03T12:41:05.523Z,37.00
2019-05-03T12:43:33.956Z,36.50
2019-05-03T12:46:02.552Z,36.60
2019-05-03T12:48:31.115Z,36.50
2019-05-03T12:50:59.966Z,36.70
2019-05-03T12:53:28.799Z,36.90
2019-05-03T12:55:57.707Z,37.00
2019-05-03T12:58:27.928Z,36.20
2019-05-03T13:00:58.174Z,35.90
2019-05-03T13:03:28.372Z,35.60
2019-05-03T13:05:56.944Z,35.00
2019-05-03T13:08:35.272Z,35.40
2019-05-03T13:11:05.306Z,34.10
2019-05-03T13:13:35.900Z,34.90
2019-05-03T13:16:05.128Z,34.80
2019-05-03T13:18:35.089Z,34.60
2019-05-03T13:21:05.885Z,34.80
2019-05-03T13:23:35.319Z,34.70
2019-05-03T13:26:05.573Z,35.00
2019-05-03T13:28:34.839Z,35.20
2019-05-03T13:31:05.692Z,35.50
2019-05-03T13:33:34.824Z,35.60
2019-05-03T13:36:04.099Z,35.70
2019-05-03T13:38:34.661Z,35.70
2019-05-03T13:41:03.661Z,35.70
2019-05-03T13:43:32.331Z,35.70
2019-05-03T13:46:00.995Z,35.70
2019-05-03T13:48:41.514Z,34.90
2019-05-03T13:50:59.919Z,34.40
2019-05-03T13:53:28.564Z,34.90
2019-05-03T13:55:57.164Z,34.60
2019-05-03T13:58:26.441Z,34.40
2019-05-03T14:00:55.201Z,34.90
2019-05-03T14:03:23.895Z,35.50
2019-05-03T14:05:52.671Z,35.70
2019-05-03T14:08:21.387Z,36.20
2019-05-03T14:10:49.980Z,36.70
2019-05-03T14:13:18.545Z,36.90
2019-05-03T14:15:47.205Z,36.80
2019-05-03T14:18:15.851Z,37.00
2019-05-03T14:20:57.944Z,37.20
2019-05-03T14:23:26.519Z,37.10
2019-05-03T14:25:55.370Z,36.40
2019-05-03T14:28:25.207Z,36.40
2019-05-03T14:30:54.782Z,36.60
2019-05-03T14:33:24.854Z,36.80
2019-05-03T14:35:54.694Z,36.30
2019-05-03T14:38:25.441Z,36.30
2019-05-03T14:40:55.051Z,36.10
2019-05-03T14:43:24.878Z,36.00
2019-05-03T14:45:55.050Z,36.00
2019-05-03T14:48:24.871Z,36.10
2019-05-03T14:50:57.131Z,35.70
2019-05-03T14:53:25.479Z,35.20
2019-05-03T14:55:55.821Z,34.90
2019-05-03T14:58:40.884Z,34.60
2019-05-03T15:01:11.141Z,34.50
2019-05-03T15:03:39.703Z,34.10
2019-05-03T15:06:08.266Z,33.90
2019-05-03T15:08:37.215Z,34.20
2019-05-03T15:11:05.869Z,34.70
2019-05-03T15:13:35.011Z,35.10
2019-05-03T15:16:05.281Z,35.60
2019-05-03T15:18:34.869Z,36.10
2019-05-03T15:21:05.330Z,36.30
2019-05-03T15:23:34.680Z,36.50
2019-05-03T15:26:05.108Z,36.70
2019-05-03T15:28:35.664Z,36.60
2019-05-03T15:31:04.627Z,36.30
2019-05-03T15:33:35.185Z,36.20
2019-05-03T15:36:04.803Z,36.30
2019-05-03T15:38:34.668Z,36.50
2019-05-03T15:41:05.153Z,36.60
2019-05-03T15:43:51.515Z,36.60
2019-05-03T15:46:21.757Z,36.70
2019-05-03T15:48:51.976Z,36.60
2019-05-03T15:51:20.615Z,36.70
2019-05-03T15:53:49.190Z,37.00
2019-05-03T15:56:18.060Z,37.10
2019-05-03T15:58:46.977Z,36.80
2019-05-03T16:01:15.547Z,36.70
2019-05-03T16:03:44.883Z,36.70
2019-05-03T16:06:15.330Z,36.80
2019-05-03T16:08:44.649Z,36.90
2019-05-03T16:11:14.827Z,36.90
2019-05-03T16:13:44.832Z,36.80
2019-05-03T16:16:15.237Z,36.80
2019-05-03T16:18:44.860Z,36.80
2019-05-03T16:21:14.614Z,36.80
2019-05-03T16:23:46.286Z,36.80
2019-05-03T16:26:14.327Z,36.80
2019-05-03T16:28:46.407Z,36.80
2019-05-03T16:31:16.761Z,36.90
2019-05-03T16:33:45.752Z,37.00
2019-05-03T16:36:14.871Z,37.20
2019-05-03T16:38:44.943Z,37.10
2019-05-03T16:41:17.493Z,36.90
2019-05-03T16:43:45.539Z,36.80
2019-05-03T16:46:14.607Z,36.90
2019-05-03T16:48:44.838Z,36.90
2019-05-03T16:51:15.084Z,36.90
2019-05-03T16:53:44.594Z,36.80
2019-05-03T16:56:16.569Z,36.90
2019-05-03T16:58:44.668Z,37.10
2019-05-03T17:01:17.478Z,37.10
2019-05-03T17:03:45.761Z,37.40
2019-05-03T17:06:22.202Z,37.30
2019-05-03T17:09:09.996Z,37.10
2019-05-03T17:11:38.672Z,37.10
2019-05-03T17:14:07.322Z,37.00
2019-05-03T17:16:36.813Z,37.00
2019-05-03T17:19:05.961Z,37.10
2019-05-03T17:21:35.002Z,37.10
2019-05-03T17:24:04.352Z,37.10
2019-05-03T17:26:35.142Z,37.20
2019-05-03T17:29:04.646Z,37.30
2019-05-03T17:31:35.025Z,37.50
2019-05-03T17:34:05.378Z,37.50
2019-05-03T17:36:34.405Z,37.60
2019-05-03T17:39:07.142Z,37.80
2019-05-03T17:41:37.366Z,37.90
2019-05-03T17:44:07.872Z,38.20
2019-05-03T17:46:36.774Z,38.40
2019-05-03T17:49:05.385Z,38.60
2019-05-03T17:51:50.722Z,38.80
2019-05-03T17:54:26.931Z,39.00
2019-05-03T17:57:04.601Z,39.10
2019-05-03T17:59:35.156Z,39.20
2019-05-03T18:02:21.636Z,39.30
2019-05-03T18:05:09.110Z,39.40
2019-05-03T18:07:47.889Z,39.60
2019-05-03T18:10:16.613Z,39.70
2019-05-03T18:12:45.375Z,39.70
2019-05-03T18:15:14.790Z,39.80
2019-05-03T18:17:44.484Z,39.90
2019-05-03T18:20:14.948Z,40.10
2019-05-03T18:22:43.622Z,40.20
2019-05-03T18:25:14.179Z,40.50
2019-05-03T18:27:44.484Z,40.70
2019-05-03T18:30:14.386Z,41.00
2019-05-03T18:32:42.988Z,41.20
2019-05-03T18:35:11.622Z,41.20
2019-05-03T18:37:40.208Z,41.30
2019-05-03T18:40:09.018Z,41.40
2019-05-03T18:42:47.223Z,41.20
2019-05-03T18:45:26.074Z,41.10
2019-05-03T18:47:54.674Z,41.10
2019-05-03T18:50:23.249Z,41.40
2019-05-03T18:52:51.812Z,41.60
2019-05-03T18:55:20.478Z,41.80
2019-05-03T18:57:49.052Z,42.10
2019-05-03T19:00:19.331Z,42.20
2019-05-03T19:02:48.101Z,42.50
2019-05-03T19:05:18.318Z,42.60
2019-05-03T19:08:04.537Z,42.70
2019-05-03T19:10:37.626Z,43.00
2019-05-03T19:13:16.401Z,43.30
2019-05-03T19:15:45.064Z,43.60
2019-05-03T19:18:15.480Z,44.00
2019-05-03T19:20:45.566Z,44.40
2019-05-03T19:23:15.388Z,44.70
2019-05-03T19:25:49.011Z,45.20
2019-05-03T19:28:14.263Z,45.50
2019-05-03T19:30:45.713Z,45.90
2019-05-03T19:33:14.272Z,46.20
2019-05-03T19:35:44.417Z,46.60
2019-05-03T19:38:15.075Z,46.90
2019-05-03T19:40:45.341Z,47.10
2019-05-03T19:43:15.230Z,47.40
2019-05-03T19:45:44.926Z,47.70
2019-05-03T19:48:14.774Z,47.90
2019-05-03T19:50:44.802Z,48.20
2019-05-03T19:53:16.030Z,48.50
2019-05-03T19:55:50.382Z,48.80
2019-05-03T19:58:16.915Z,49.00
2019-05-03T20:01:05.624Z,49.20
2019-05-03T20:03:35.648Z,49.50
2019-05-03T20:06:06.054Z,49.80
2019-05-03T20:08:36.260Z,50.00
2019-05-03T20:11:18.269Z,50.20
2019-05-03T20:13:46.988Z,50.40
2019-05-03T20:16:15.789Z,50.60
2019-05-03T20:18:45.447Z,50.70
2019-05-03T20:21:14.951Z,50.90
2019-05-03T20:23:44.762Z,51.00
2019-05-03T20:26:14.893Z,51.20
2019-05-03T20:28:44.853Z,51.40
2019-05-03T20:31:13.737Z,51.60
2019-05-03T20:33:42.305Z,51.80
2019-05-03T20:36:10.934Z,52.10
2019-05-03T20:38:39.816Z,52.20
2019-05-03T20:41:08.373Z,52.40
2019-05-03T20:43:44.554Z,52.30
2019-05-03T20:46:15.145Z,52.50
2019-05-03T20:48:47.399Z,52.70
2019-05-03T20:51:15.994Z,52.90
2019-05-03T20:53:44.946Z,52.80
2019-05-03T20:56:15.327Z,53.00
2019-05-03T20:58:46.071Z,53.00
2019-05-03T21:01:15.272Z,53.10
2019-05-03T21:03:45.004Z,53.20
2019-05-03T21:06:15.274Z,53.40
2019-05-03T21:08:52.546Z,53.50
2019-05-03T21:11:14.792Z,53.70
2019-05-03T21:13:44.972Z,53.80
2019-05-03T21:16:30.452Z,53.90
2019-05-03T21:19:04.875Z,54.10
2019-05-03T21:21:40.902Z,54.10
2019-05-03T21:24:20.229Z,54.20
2019-05-03T21:26:48.890Z,54.20
2019-05-03T21:29:17.515Z,54.40
2019-05-03T21:31:46.125Z,54.60
2019-05-03T21:34:14.892Z,54.70
2019-05-03T21:36:45.215Z,54.80
2019-05-03T21:39:14.637Z,54.90
2019-05-03T21:41:45.088Z,55.30
2019-05-03T21:44:15.485Z,55.40
2019-05-03T21:46:45.770Z,55.60
2019-05-03T21:49:15.971Z,55.70
2019-05-03T21:51:44.962Z,56.00
2019-05-03T21:54:15.326Z,56.50
2019-05-03T21:56:44.697Z,55.90
2019-05-03T21:59:13.373Z,55.90
2019-05-03T22:01:45.660Z,55.90
2019-05-03T22:04:15.571Z,55.70
2019-05-03T22:06:44.485Z,55.60
2019-05-03T22:09:13.133Z,55.60
2019-05-03T22:11:42.023Z,55.60
2019-05-03T22:14:12.222Z,55.60
2019-05-03T22:16:42.446Z,55.50
2019-05-03T22:19:12.040Z,55.60
2019-05-03T22:21:42.401Z,55.50
2019-05-03T22:24:15.643Z,55.50
2019-05-03T22:26:48.744Z,55.60
2019-05-03T22:29:17.484Z,55.70
2019-05-03T22:31:46.047Z,55.80
2019-05-03T22:34:15.193Z,56.10
2019-05-03T22:36:44.410Z,56.20
2019-05-03T22:39:13.308Z,56.30
2019-05-03T22:41:43.697Z,56.30
2019-05-03T22:44:12.263Z,56.50
2019-05-03T22:46:40.902Z,56.60
2019-05-03T22:49:09.545Z,56.60
2019-05-03T22:51:38.086Z,56.70
2019-05-03T22:54:06.773Z,56.80
2019-05-03T22:56:35.746Z,56.80
2019-05-03T22:59:05.538Z,56.90
2019-05-03T23:01:35.254Z,57.30
2019-05-03T23:04:05.577Z,57.50
2019-05-03T23:06:34.435Z,57.60
2019-05-03T23:09:05.094Z,57.70
2019-05-03T23:11:35.302Z,57.90
2019-05-03T23:14:05.033Z,57.80
2019-05-03T23:16:35.607Z,57.80
2019-05-03T23:19:05.522Z,58.00
2019-05-03T23:21:45.109Z,58.00
2019-05-03T23:24:15.388Z,58.00
2019-05-03T23:26:45.138Z,58.10
2019-05-03T23:29:14.372Z,58.10
2019-05-03T23:31:44.836Z,58.00
2019-05-03T23:34:13.395Z,58.00
2019-05-03T23:36:42.417Z,58.00
2019-05-03T23:39:11.089Z,58.00
2019-05-03T23:41:39.717Z,58.20
2019-05-03T23:44:08.334Z,58.20
2019-05-03T23:46:38.621Z,58.40
2019-05-03T23:49:07.237Z,58.40
2019-05-03T23:51:46.442Z,58.20
2019-05-03T23:54:16.207Z,58.00
2019-05-03T23:56:45.855Z,58.00
2019-05-03T23:59:15.534Z,57.70
